Terminal Aerodrome Forecast
Issued by NWS

Home | Current Version | Previous Version | Graphics & Text | Print | Product List | Glossary On
Versions: 1 2 3 4 5 6 7 8 9 10 11 12
000
FTUS43 KMPX 181121
TAFRWF
TAF
KRWF 181121Z 1812/1912 27006KT P6SM SCT200
     FM182000 20004KT P6SM BKN200
     FM190000 16005KT P6SM SCT200=

USA.gov is the U.S. government's official web portal to all federal, state and local government web resources and services.